Time;durP1;ratioP1;P1;durP2;ratioP2;P2;SDS_P1;SDS_P2;PMS_P1;PMS_P2;Temp;Humidity;BMP_temperature;BMP_pressure;BME280_temperature;BME280_humidity;BME280_pressure;Samples;Min_cycle;Max_cycle;Signal;HPM_P1;HPM_P2
2022/10/06 00:00:21;;;;;;;4.87;2.30;;;16.70;99.90;;;;;;5035009;28;20068;-70
2022/10/06 00:02:47;;;;;;;4.35;2.03;;;16.80;99.90;;;;;;5034386;28;20415;-70
2022/10/06 00:05:13;;;;;;;6.17;2.37;;;16.80;99.90;;;;;;5034483;28;20069;-71
2022/10/06 00:07:38;;;;;;;4.15;2.00;;;16.80;99.90;;;;;;5033291;28;20033;-70
2022/10/06 00:10:05;;;;;;;6.23;2.37;;;16.90;99.90;;;;;;5033258;28;20037;-70
2022/10/06 00:12:46;;;;;;;4.32;2.00;;;16.90;99.90;;;;;;5034256;28;20264;-70
2022/10/06 00:15:13;;;;;;;8.02;2.20;;;16.80;99.90;;;;;;5033883;28;20057;-70
2022/10/06 00:17:39;;;;;;;6.75;2.50;;;16.80;99.90;;;;;;5034515;28;20390;-70
2022/10/06 00:20:06;;;;;;;6.28;2.10;;;16.90;99.90;;;;;;5034165;28;20026;-70
2022/10/06 00:22:36;;;;;;;4.70;2.30;;;16.90;99.90;;;;;;5032372;28;20056;-70
2022/10/06 00:25:03;;;;;;;5.13;2.50;;;16.90;99.90;;;;;;5034009;28;20517;-71
2022/10/06 00:27:36;;;;;;;5.10;2.55;;;16.80;99.90;;;;;;5032751;28;20393;-70
2022/10/06 00:30:04;;;;;;;5.93;2.45;;;16.80;99.90;;;;;;5033637;28;20024;-70
2022/10/06 00:32:30;;;;;;;4.88;2.33;;;16.90;99.90;;;;;;5032561;28;20044;-71
2022/10/06 00:34:57;;;;;;;4.65;2.40;;;16.80;99.90;;;;;;5032513;28;20398;-71
2022/10/06 00:37:23;;;;;;;3.58;2.20;;;16.80;99.90;;;;;;5033902;28;20029;-70
2022/10/06 00:39:48;;;;;;;3.50;2.40;;;16.80;99.90;;;;;;5032623;28;20030;-70
2022/10/06 00:42:29;;;;;;;4.47;2.40;;;16.60;99.90;;;;;;5034025;28;20046;-70
2022/10/06 00:44:58;;;;;;;6.25;2.50;;;16.70;99.90;;;;;;5033680;28;20276;-71
2022/10/06 00:47:27;;;;;;;7.25;2.60;;;16.60;99.90;;;;;;5032694;28;20653;-70
2022/10/06 00:49:54;;;;;;;3.10;2.30;;;16.70;99.90;;;;;;5034095;28;20025;-70
2022/10/06 00:52:24;;;;;;;3.63;2.30;;;16.60;99.90;;;;;;5033789;28;20032;-70
2022/10/06 00:54:50;;;;;;;5.80;2.50;;;16.60;99.90;;;;;;5033629;28;20390;-70
2022/10/06 00:57:18;;;;;;;5.70;2.30;;;16.50;99.90;;;;;;5033935;28;20398;-71
2022/10/06 00:59:44;;;;;;;5.35;2.30;;;16.50;99.90;;;;;;5033574;28;20479;-71
2022/10/06 01:02:25;;;;;;;6.90;2.57;;;16.50;99.90;;;;;;5032667;28;20031;-71
2022/10/06 01:04:55;;;;;;;7.90;2.45;;;16.40;99.90;;;;;;5033488;28;20264;-71
2022/10/06 01:07:22;;;;;;;11.38;2.58;;;16.40;99.90;;;;;;5033304;28;20490;-71
2022/10/06 01:09:48;;;;;;;6.32;2.35;;;16.40;99.90;;;;;;5032148;28;20382;-71
2022/10/06 01:12:14;;;;;;;7.18;2.58;;;16.40;99.90;;;;;;5032408;28;20078;-71
2022/10/06 01:14:40;;;;;;;8.30;2.47;;;16.40;99.90;;;;;;5033702;28;20509;-71
2022/10/06 01:17:19;;;;;;;6.78;2.97;;;16.40;99.90;;;;;;5034040;28;20033;-71
2022/10/06 01:19:50;;;;;;;3.88;2.28;;;16.40;99.90;;;;;;5033855;28;20044;-70
2022/10/06 01:22:34;;;;;;;4.93;2.60;;;16.40;99.90;;;;;;5032186;28;20026;-70
2022/10/06 01:25:00;;;;;;;6.80;2.78;;;16.40;99.90;;;;;;5032177;28;20025;-72
2022/10/06 01:27:29;;;;;;;8.05;2.80;;;16.40;99.90;;;;;;5033528;28;20033;-71
2022/10/06 01:29:56;;;;;;;6.00;2.63;;;16.40;99.90;;;;;;5032051;28;20033;-70
2022/10/06 01:32:23;;;;;;;4.57;2.58;;;16.30;99.90;;;;;;5033597;28;20044;-70
2022/10/06 01:34:49;;;;;;;7.25;3.05;;;16.40;99.90;;;;;;5032144;28;20371;-70
2022/10/06 01:37:15;;;;;;;5.32;2.55;;;16.30;99.90;;;;;;5033527;28;20064;-72
2022/10/06 01:39:42;;;;;;;5.32;2.60;;;16.30;99.90;;;;;;5033590;28;20512;-70
2022/10/06 01:42:08;;;;;;;5.93;2.78;;;16.30;99.90;;;;;;5033347;28;20025;-70
2022/10/06 01:44:33;;;;;;;4.07;2.58;;;16.30;99.90;;;;;;5031443;28;20532;-71
2022/10/06 01:46:59;;;;;;;7.77;2.80;;;16.30;99.90;;;;;;5031772;28;20022;-70
2022/10/06 01:49:24;;;;;;;8.80;2.83;;;16.30;99.90;;;;;;5033259;28;20306;-70
2022/10/06 01:51:50;;;;;;;5.80;2.10;;;16.30;99.90;;;;;;5032959;28;20257;-71
2022/10/06 01:54:15;;;;;;;7.93;2.87;;;16.30;99.90;;;;;;5031667;28;20029;-70
2022/10/06 01:56:42;;;;;;;4.97;1.97;;;16.20;99.90;;;;;;5032986;28;20029;-71
2022/10/06 01:59:07;;;;;;;;;;;16.40;99.90;;;;;;5033126;28;20021;-72
2022/10/06 02:01:33;;;;;;;4.55;2.53;;;16.40;99.90;;;;;;5033076;28;20062;-71
2022/10/06 02:03:58;;;;;;;6.80;2.70;;;16.40;99.90;;;;;;5032883;28;20029;-70
2022/10/06 02:06:25;;;;;;;5.95;2.47;;;16.40;99.90;;;;;;5033251;28;20300;-71
2022/10/06 02:08:50;;;;;;;6.70;2.60;;;16.40;99.90;;;;;;5031795;28;20083;-71
2022/10/06 02:11:17;;;;;;;5.03;2.20;;;16.30;99.90;;;;;;5036319;28;20025;-71
2022/10/06 02:13:42;;;;;;;4.63;2.47;;;16.30;99.90;;;;;;5035864;28;20314;-71
2022/10/06 02:16:09;;;;;;;6.87;2.33;;;16.40;99.90;;;;;;5035772;28;20026;-70
2022/10/06 02:18:34;;;;;;;;;;;16.40;99.90;;;;;;5036010;28;20303;-70
2022/10/06 02:21:01;;;;;;;8.70;2.53;;;16.40;99.90;;;;;;5035600;28;19998;-70
2022/10/06 02:23:26;;;;;;;;;;;16.40;99.90;;;;;;5037190;28;20038;-71
2022/10/06 02:26:03;;;;;;;5.82;2.13;;;16.50;99.90;;;;;;5037013;28;20255;-71
2022/10/06 02:28:29;;;;;;;10.52;2.42;;;16.50;99.90;;;;;;5036494;28;20034;-71
2022/10/06 02:31:00;;;;;;;6.15;2.60;;;16.50;99.90;;;;;;5036382;28;20108;-70
2022/10/06 02:33:25;;;;;;;4.45;2.10;;;16.50;99.90;;;;;;5035286;28;20436;-70
2022/10/06 02:35:57;;;;;;;7.23;2.07;;;16.50;99.90;;;;;;5036831;28;20024;-71
2022/10/06 02:38:23;;;;;;;6.53;2.80;;;16.40;99.90;;;;;;5036342;28;20038;-70
2022/10/06 02:40:50;;;;;;;4.25;2.35;;;16.50;99.90;;;;;;5031255;28;20025;-70
2022/10/06 02:43:16;;;;;;;5.45;2.30;;;16.50;99.90;;;;;;5016370;28;20069;-70
2022/10/06 02:45:42;;;;;;;6.50;2.63;;;16.40;99.90;;;;;;5031145;28;20334;-70
2022/10/06 02:48:10;;;;;;;4.20;2.47;;;16.40;99.90;;;;;;5036282;28;20021;-71
2022/10/06 02:50:38;;;;;;;5.55;2.58;;;16.30;99.90;;;;;;5035107;28;20051;-70
2022/10/06 02:53:07;;;;;;;5.80;2.50;;;16.40;99.90;;;;;;5035142;28;20029;-71
2022/10/06 02:55:34;;;;;;;5.60;2.95;;;16.30;99.90;;;;;;5036093;28;20028;-71
2022/10/06 02:57:59;;;;;;;8.00;2.83;;;16.30;99.90;;;;;;5036028;28;20032;-70
2022/10/06 03:00:25;;;;;;;6.00;2.80;;;16.30;99.90;;;;;;5034395;28;20025;-71
2022/10/06 03:02:50;;;;;;;6.15;2.60;;;16.40;99.90;;;;;;5034754;28;20145;-70
2022/10/06 03:05:16;;;;;;;7.60;2.87;;;16.30;99.90;;;;;;5035425;28;20029;-70
2022/10/06 03:07:41;;;;;;;7.93;3.07;;;16.40;99.90;;;;;;5035792;28;20389;-71
2022/10/06 03:10:07;;;;;;;7.27;2.60;;;16.20;99.90;;;;;;5034204;28;20665;-71
2022/10/06 03:12:33;;;;;;;5.68;2.75;;;16.20;99.90;;;;;;5035815;28;20025;-70
2022/10/06 03:14:58;;;;;;;5.43;2.75;;;16.10;99.90;;;;;;5034299;28;20041;-71
2022/10/06 03:17:24;;;;;;;5.77;2.70;;;16.20;99.90;;;;;;5035829;28;20033;-70
2022/10/06 03:19:49;;;;;;;7.35;2.80;;;16.20;99.90;;;;;;5035849;28;20028;-70
2022/10/06 03:22:15;;;;;;;6.80;2.90;;;16.20;99.90;;;;;;5034437;28;20034;-71
2022/10/06 03:24:40;;;;;;;8.70;3.33;;;16.20;99.90;;;;;;5034337;28;20025;-70
2022/10/06 03:27:06;;;;;;;5.17;2.87;;;16.20;99.90;;;;;;5035605;28;20320;-70
2022/10/06 03:29:32;;;;;;;4.73;2.80;;;16.10;99.90;;;;;;5035358;28;20029;-70
2022/10/06 03:31:58;;;;;;;;;;;15.90;99.90;;;;;;5035956;28;20481;-70
2022/10/06 03:34:23;;;;;;;4.60;2.58;;;16.00;99.90;;;;;;5035592;28;19911;-70
2022/10/06 03:36:49;;;;;;;5.07;2.50;;;16.00;99.90;;;;;;5034332;28;20057;-70
2022/10/06 03:39:14;;;;;;;7.47;2.77;;;16.10;99.90;;;;;;5034248;28;20261;-70
2022/10/06 03:41:40;;;;;;;5.97;2.97;;;16.10;99.90;;;;;;5034107;28;20048;-70
2022/10/06 03:44:06;;;;;;;5.43;3.10;;;16.10;99.90;;;;;;5035152;28;20033;-70
2022/10/06 03:46:34;;;;;;;8.17;3.50;;;16.10;99.90;;;;;;5035129;28;20450;-70
2022/10/06 03:49:00;;;;;;;6.75;3.00;;;16.10;99.90;;;;;;5035389;28;20264;-69
2022/10/06 03:51:31;;;;;;;9.43;3.35;;;16.00;99.90;;;;;;5035347;28;20052;-70
2022/10/06 03:53:58;;;;;;;6.72;3.75;;;16.10;99.90;;;;;;5035356;28;20112;-70
2022/10/06 03:56:30;;;;;;;7.18;3.65;;;16.10;99.90;;;;;;5034073;28;20021;-70
2022/10/06 03:59:00;;;;;;;7.75;3.58;;;16.00;99.90;;;;;;5035299;28;20151;-70
2022/10/06 04:01:27;;;;;;;8.98;3.67;;;16.10;99.90;;;;;;5033531;28;20528;-70
2022/10/06 04:03:55;;;;;;;9.55;4.07;;;16.10;99.90;;;;;;5034811;28;20417;-71
2022/10/06 04:06:21;;;;;;;8.10;3.60;;;16.10;99.90;;;;;;5034811;28;20017;-70
2022/10/06 04:08:48;;;;;;;8.73;3.47;;;16.20;99.90;;;;;;5033627;28;20029;-70
2022/10/06 04:11:20;;;;;;;8.52;3.58;;;16.30;99.90;;;;;;5034549;28;20025;-70
2022/10/06 04:13:46;;;;;;;9.43;3.47;;;16.20;99.90;;;;;;5033724;28;20022;-71
2022/10/06 04:16:18;;;;;;;6.53;3.22;;;16.30;99.90;;;;;;5033210;28;20021;-71
2022/10/06 04:18:48;;;;;;;7.43;3.83;;;16.40;99.90;;;;;;5034928;28;20059;-71
2022/10/06 04:21:14;;;;;;;7.05;3.33;;;16.40;99.90;;;;;;5033478;28;20025;-70
2022/10/06 04:23:40;;;;;;;11.85;4.72;;;16.40;99.90;;;;;;5033023;28;20026;-70
2022/10/06 04:26:16;;;;;;;8.00;3.72;;;16.40;99.90;;;;;;5034302;28;20105;-70
2022/10/06 04:28:43;;;;;;;10.97;3.70;;;16.40;99.90;;;;;;5034226;28;20036;-69
2022/10/06 04:31:21;;;;;;;8.00;3.58;;;16.40;99.90;;;;;;5032933;28;20048;-72
2022/10/06 04:33:50;;;;;;;5.32;3.72;;;16.40;99.90;;;;;;5032645;28;20056;-74
2022/10/06 04:36:21;;;;;;;7.85;3.90;;;16.50;99.90;;;;;;5034324;28;20565;-73
2022/10/06 04:38:57;;;;;;;7.80;3.75;;;16.50;99.90;;;;;;5032278;28;20037;-74
2022/10/06 04:41:25;;;;;;;8.18;3.45;;;16.40;99.90;;;;;;5033620;28;20025;-75
2022/10/06 04:43:51;;;;;;;10.65;4.32;;;16.40;99.90;;;;;;5032476;28;20056;-76
2022/10/06 04:46:17;;;;;;;;;;;16.40;99.90;;;;;;5032848;28;20049;-66
2022/10/06 04:48:43;;;;;;;10.32;5.78;;;16.30;99.90;;;;;;5034109;28;19909;-69
2022/10/06 04:51:11;;;;;;;15.50;6.30;;;16.30;99.90;;;;;;5034159;28;20025;-70
2022/10/06 04:53:37;;;;;;;9.70;4.45;;;16.30;99.90;;;;;;5034165;28;20271;-70
2022/10/06 04:56:10;;;;;;;8.15;3.83;;;16.20;99.90;;;;;;5034268;28;20470;-69
2022/10/06 04:58:38;;;;;;;7.28;3.50;;;16.40;99.90;;;;;;5032716;28;20033;-71
2022/10/06 05:01:15;;;;;;;9.43;3.72;;;16.40;99.90;;;;;;5032717;28;20041;-73
2022/10/06 05:03:41;;;;;;;7.45;4.00;;;16.30;99.90;;;;;;5032516;28;20056;-72
2022/10/06 05:06:11;;;;;;;7.15;3.92;;;16.30;99.90;;;;;;5028316;28;20114;-73
2022/10/06 05:08:37;;;;;;;7.15;3.78;;;16.40;99.90;;;;;;5029415;28;20114;-72
2022/10/06 05:11:07;;;;;;;8.65;3.67;;;16.40;99.90;;;;;;5020768;28;20033;-67
2022/10/06 05:13:32;;;;;;;9.15;4.15;;;16.40;99.90;;;;;;5031237;28;20576;-69
2022/10/06 05:15:59;;;;;;;7.97;4.18;;;16.50;99.90;;;;;;5032158;28;20116;-70
2022/10/06 05:18:26;;;;;;;8.82;3.63;;;16.50;99.90;;;;;;5033661;28;20394;-69
2022/10/06 05:20:58;;;;;;;6.78;3.88;;;16.40;99.90;;;;;;5032450;28;20040;-70
2022/10/06 05:23:26;;;;;;;7.78;3.85;;;16.40;99.90;;;;;;5033295;28;20025;-70
2022/10/06 05:25:53;;;;;;;8.70;4.05;;;16.40;99.90;;;;;;5033305;28;20083;-70
2022/10/06 05:28:19;;;;;;;30.70;16.05;;;16.40;99.90;;;;;;5032584;28;20440;-69
2022/10/06 05:31:21;;;;;;;7.88;3.92;;;16.40;99.90;;;;;;5033198;28;20105;-70
2022/10/06 05:33:47;;;;;;;10.43;3.90;;;16.40;99.90;;;;;;5011688;28;20053;-70
2022/10/06 05:36:17;;;;;;;6.43;3.75;;;16.40;99.90;;;;;;5011552;28;20518;-69
2022/10/06 05:38:43;;;;;;;9.13;3.50;;;16.40;99.90;;;;;;4995203;28;20038;-70
2022/10/06 05:41:10;;;;;;;;;;;16.40;99.90;;;;;;5003888;28;20605;-69
2022/10/06 05:43:36;;;;;;;21.07;9.53;;;16.40;99.90;;;;;;4992273;28;19921;-72
2022/10/06 05:46:04;;;;;;;7.95;3.83;;;16.40;99.90;;;;;;4991068;28;20602;-72
2022/10/06 05:48:31;;;;;;;8.38;3.85;;;16.40;99.90;;;;;;4974548;28;20115;-73
2022/10/06 05:50:58;;;;;;;;;;;16.40;99.90;;;;;;4992403;28;20463;-73
2022/10/06 05:53:24;;;;;;;10.32;3.70;;;16.40;99.90;;;;;;4991895;28;20398;-71
2022/10/06 05:55:49;;;;;;;8.75;3.47;;;16.40;99.90;;;;;;4991904;28;20041;-71
2022/10/06 05:58:15;;;;;;;5.67;3.63;;;16.40;99.90;;;;;;4991894;28;20042;-71
2022/10/06 06:00:40;;;;;;;9.17;3.33;;;16.30;99.90;;;;;;4975202;28;20273;-72
2022/10/06 06:03:09;;;;;;;6.63;3.60;;;16.40;99.90;;;;;;4991634;28;20038;-71
2022/10/06 06:05:40;;;;;;;9.68;3.35;;;16.40;99.90;;;;;;4991717;28;20446;-70
2022/10/06 06:08:06;;;;;;;14.93;5.75;;;16.50;99.90;;;;;;4991856;28;20204;-71
2022/10/06 06:10:31;;;;;;;8.07;3.10;;;16.50;99.90;;;;;;5009395;28;20065;-71
2022/10/06 06:12:57;;;;;;;7.47;2.80;;;16.40;99.90;;;;;;5033164;28;20740;-71
2022/10/06 06:18:08;;;;;;;7.95;3.13;;;16.30;99.90;;;;;;5033273;28;20306;-71
2022/10/06 06:20:33;;;;;;;7.60;2.55;;;16.50;99.90;;;;;;5032710;28;20167;-72
2022/10/06 06:22:59;;;;;;;6.90;2.60;;;16.40;99.90;;;;;;5032669;28;20537;-72
2022/10/06 06:25:24;;;;;;;5.83;2.80;;;16.50;99.90;;;;;;5031479;28;20029;-73
2022/10/06 06:27:52;;;;;;;7.35;2.80;;;16.60;99.90;;;;;;5032959;28;20026;-72
2022/10/06 06:30:20;;;;;;;5.20;2.20;;;16.70;99.90;;;;;;5032334;28;20029;-72
2022/10/06 06:32:45;;;;;;;8.63;2.15;;;16.70;99.90;;;;;;5032706;28;20056;-73
2022/10/06 06:35:11;;;;;;;6.20;2.13;;;16.70;99.90;;;;;;5031209;28;20057;-72
2022/10/06 06:37:37;;;;;;;5.18;2.20;;;16.60;99.90;;;;;;5031763;28;20049;-71
2022/10/06 06:40:03;;;;;;;8.90;2.42;;;16.60;99.90;;;;;;5031786;28;20063;-71
2022/10/06 06:42:28;;;;;;;4.57;1.70;;;16.50;99.90;;;;;;5032346;28;20036;-71
2022/10/06 06:44:54;;;;;;;6.17;1.93;;;16.50;99.90;;;;;;5032967;28;20033;-71
2022/10/06 06:47:20;;;;;;;9.17;2.10;;;16.40;99.90;;;;;;5032542;28;20068;-71
2022/10/06 06:49:46;;;;;;;7.40;2.33;;;16.40;99.90;;;;;;5033315;28;20075;-71
2022/10/06 06:52:12;;;;;;;5.40;2.10;;;16.40;99.90;;;;;;5033151;28;20056;-71
2022/10/06 06:54:39;;;;;;;8.60;2.22;;;16.30;99.90;;;;;;5032710;28;20021;-71
2022/10/06 06:57:05;;;;;;;5.05;1.75;;;16.50;99.90;;;;;;5034308;28;20025;-69
2022/10/06 06:59:32;;;;;;;4.38;1.80;;;16.50;99.90;;;;;;5036336;28;20052;-68
2022/10/06 07:01:58;;;;;;;7.13;1.83;;;16.60;99.90;;;;;;5034657;28;20026;-70
2022/10/06 07:04:23;;;;;;;5.50;1.60;;;16.60;99.90;;;;;;5036407;28;20363;-69
2022/10/06 07:06:56;;;;;;;3.23;1.60;;;16.60;99.90;;;;;;5036444;28;20045;-69
2022/10/06 07:09:22;;;;;;;5.45;1.55;;;16.70;99.90;;;;;;5034914;28;20033;-71
2022/10/06 07:11:49;;;;;;;7.90;2.20;;;16.70;99.90;;;;;;5034602;28;20032;-70
2022/10/06 07:14:14;;;;;;;5.53;1.55;;;16.80;99.90;;;;;;5034675;28;20021;-69
2022/10/06 07:25:06;;;;;;;6.22;1.77;;;16.70;99.90;;;;;;5035679;28;20037;-68
2022/10/06 07:27:35;;;;;;;5.88;1.60;;;16.80;99.90;;;;;;5034221;28;20041;-69
2022/10/06 07:30:04;;;;;;;5.85;1.52;;;16.70;99.90;;;;;;5035679;28;20154;-69
2022/10/06 07:32:30;;;;;;;6.47;1.75;;;16.70;99.90;;;;;;5034102;28;20018;-70
2022/10/06 07:34:59;;;;;;;5.80;1.63;;;16.80;99.90;;;;;;5034473;28;20013;-69
2022/10/06 07:37:27;;;;;;;5.30;1.42;;;16.90;99.90;;;;;;5034394;28;20111;-69
2022/10/06 07:39:53;;;;;;;5.82;2.17;;;16.80;99.90;;;;;;5035688;28;20108;-69
2022/10/06 07:42:19;;;;;;;8.82;1.85;;;17.00;99.90;;;;;;5036547;28;20056;-71
2022/10/06 07:45:36;;;;;;;9.75;2.30;;;17.10;99.90;;;;;;5035690;28;20041;-71
2022/10/06 07:47:32;;;;;;;11.80;1.95;;;17.00;99.90;;;;;;5017748;28;20462;-69
2022/10/06 07:49:57;;;;;;;6.65;1.20;;;17.20;99.90;;;;;;5017340;28;20096;-72
2022/10/06 07:52:29;;;;;;;6.47;1.43;;;17.20;99.90;;;;;;5014666;28;20052;-71
2022/10/06 07:54:57;;;;;;;7.05;1.60;;;17.30;99.90;;;;;;5014329;28;20057;-72
2022/10/06 07:57:23;;;;;;;6.85;1.33;;;17.30;99.90;;;;;;5015600;28;20025;-70
2022/10/06 07:59:49;;;;;;;6.28;1.75;;;17.30;99.90;;;;;;5015556;28;20033;-69
2022/10/06 08:02:16;;;;;;;5.53;1.25;;;17.40;99.90;;;;;;5014944;28;20034;-67
2022/10/06 08:04:42;;;;;;;4.78;1.52;;;17.40;99.90;;;;;;5015513;28;20037;-67
2022/10/06 08:07:11;;;;;;;5.53;1.30;;;17.50;99.90;;;;;;5014784;28;20489;-68
2022/10/06 08:09:37;;;;;;;3.88;1.50;;;17.60;99.90;;;;;;5014964;28;20021;-68
2022/10/06 08:12:31;;;;;;;6.03;1.27;;;17.70;99.90;;;;;;5015156;28;20368;-67
2022/10/06 08:14:48;;;;;;;5.38;1.45;;;17.70;99.90;;;;;;5014928;28;20042;-68
2022/10/06 08:17:13;;;;;;;5.93;1.40;;;17.70;99.90;;;;;;5034602;28;20450;-68
2022/10/06 08:19:39;;;;;;;6.43;3.22;;;17.90;99.90;;;;;;5034752;28;20431;-68
2022/10/06 08:22:04;;;;;;;6.40;1.63;;;18.00;99.90;;;;;;5035098;28;20041;-68
2022/10/06 08:24:30;;;;;;;8.27;1.48;;;18.00;99.90;;;;;;5034393;28;20040;-67
2022/10/06 08:26:56;;;;;;;9.85;1.75;;;18.20;99.90;;;;;;5033411;28;20124;-69
2022/10/06 08:29:21;;;;;;;6.57;1.50;;;18.40;99.90;;;;;;5033743;28;20108;-68
2022/10/06 08:31:47;;;;;;;9.27;2.40;;;18.60;99.90;;;;;;5034256;28;20268;-68
2022/10/06 08:34:12;;;;;;;10.37;2.10;;;18.60;99.90;;;;;;5034535;28;20266;-67
2022/10/06 08:36:38;;;;;;;6.33;1.33;;;18.80;99.90;;;;;;5034406;28;20264;-67
2022/10/06 08:39:05;;;;;;;10.55;1.92;;;18.80;99.90;;;;;;5034613;28;20431;-67
2022/10/06 08:41:31;;;;;;;9.98;1.80;;;18.90;99.90;;;;;;5034568;28;20036;-68
2022/10/06 08:44:15;;;;;;;5.53;1.30;;;18.90;99.90;;;;;;5034383;28;20041;-66
2022/10/06 08:46:55;;;;;;;11.73;1.77;;;18.90;99.90;;;;;;5034435;28;20140;-67
2022/10/06 08:49:25;;;;;;;6.88;1.20;;;19.10;99.90;;;;;;5034779;28;20017;-68
2022/10/06 08:51:51;;;;;;;6.57;1.35;;;19.20;99.90;;;;;;5034567;28;20386;-67
2022/10/06 08:54:43;;;;;;;4.33;1.67;;;19.30;99.90;;;;;;5034359;28;20034;-74
2022/10/06 08:57:19;;;;;;;7.38;1.70;;;19.40;99.90;;;;;;5034693;28;20029;-71
2022/10/06 08:59:47;;;;;;;9.82;1.67;;;19.40;99.90;;;;;;5034535;28;20151;-71
2022/10/06 09:02:37;;;;;;;10.55;2.30;;;19.50;99.90;;;;;;5034190;28;20029;-71
2022/10/06 09:05:05;;;;;;;6.13;1.58;;;19.40;99.90;;;;;;5034547;28;20037;-71
2022/10/06 09:07:51;;;;;;;6.28;1.70;;;19.50;99.90;;;;;;5034485;28;20371;-71
2022/10/06 09:10:33;;;;;;;6.97;1.90;;;19.70;99.90;;;;;;5033032;28;20029;-72
2022/10/06 09:13:05;;;;;;;8.75;1.55;;;19.90;99.90;;;;;;5032664;28;20496;-71
2022/10/06 09:15:45;;;;;;;8.05;2.15;;;20.30;99.90;;;;;;5033772;28;20021;-69
2022/10/06 09:18:16;;;;;;;8.10;2.45;;;20.40;99.90;;;;;;5033635;28;20017;-69
2022/10/06 09:21:03;;;;;;;7.63;1.80;;;20.30;99.90;;;;;;5034273;28;20021;-69
2022/10/06 09:23:48;;;;;;;;;;;20.20;99.90;;;;;;5034578;28;20033;-70
2022/10/06 09:26:31;;;;;;;6.63;1.80;;;20.40;99.90;;;;;;5034183;28;19905;-72
2022/10/06 09:28:57;;;;;;;4.95;1.60;;;20.60;99.90;;;;;;5032313;28;20037;-72
2022/10/06 09:31:36;;;;;;;10.70;2.13;;;20.90;99.90;;;;;;5033458;28;20071;-71
2022/10/06 09:34:14;;;;;;;6.55;1.70;;;21.10;99.90;;;;;;5032245;28;20029;-71
2022/10/06 09:37:04;;;;;;;10.10;1.92;;;20.90;99.90;;;;;;5032392;28;20022;-70
2022/10/06 09:39:35;;;;;;;4.50;1.33;;;21.20;99.90;;;;;;5032579;28;20025;-70
2022/10/06 09:42:22;;;;;;;7.32;2.15;;;21.50;99.90;;;;;;5033918;28;20474;-70
2022/10/06 09:45:02;;;;;;;;;;;21.30;99.90;;;;;;5034327;28;20034;-69
2022/10/06 09:47:29;;;;;;;7.18;1.90;;;21.90;99.80;;;;;;5032987;28;19909;-70
2022/10/06 09:50:16;;;;;;;6.65;1.50;;;21.80;99.80;;;;;;5033401;28;20025;-70
2022/10/06 09:53:00;;;;;;;7.35;1.85;;;22.20;99.40;;;;;;5032033;28;20032;-69
2022/10/06 09:55:36;;;;;;;7.68;1.67;;;22.00;98.80;;;;;;5033221;28;20497;-70
2022/10/06 09:58:15;;;;;;;10.43;1.80;;;21.80;99.00;;;;;;5033293;28;20030;-70
2022/10/06 10:00:56;;;;;;;8.27;2.20;;;21.90;99.20;;;;;;5032871;28;20040;-69
2022/10/06 10:03:25;;;;;;;9.15;1.83;;;22.10;99.00;;;;;;5031859;28;20053;-70
2022/10/06 10:05:55;;;;;;;12.98;1.92;;;22.60;98.10;;;;;;5032812;28;20022;-69
2022/10/06 10:08:31;;;;;;;8.80;2.30;;;22.00;98.20;;;;;;5031635;28;20030;-70
2022/10/06 10:12:23;;;;;;;6.88;1.80;;;21.70;99.10;;;;;;5033092;28;20490;-70
2022/10/06 10:13:57;;;;;;;8.70;2.20;;;21.40;99.40;;;;;;5032585;28;20414;-70
2022/10/06 10:16:33;;;;;;;7.82;1.90;;;21.10;99.80;;;;;;5032358;28;20071;-70
2022/10/06 10:19:00;;;;;;;7.00;1.50;;;20.80;99.90;;;;;;5031333;28;20021;-70
2022/10/06 10:21:32;;;;;;;10.00;1.73;;;20.40;99.90;;;;;;5032607;28;20566;-70
2022/10/06 10:24:00;;;;;;;6.63;2.13;;;19.90;99.90;;;;;;5032880;28;20033;-70
2022/10/06 10:26:41;;;;;;;10.80;2.08;;;19.50;99.90;;;;;;5031749;28;20406;-70
2022/10/06 10:29:48;;;;;;;6.70;1.98;;;19.30;99.90;;;;;;5031429;28;20033;-71
2022/10/06 10:32:40;;;;;;;5.63;1.60;;;19.00;99.90;;;;;;5030188;28;20045;-70
2022/10/06 10:35:40;;;;;;;8.32;1.55;;;18.90;99.90;;;;;;5034389;28;20140;-71
2022/10/06 10:38:13;;;;;;;8.70;1.80;;;18.80;99.90;;;;;;5035419;28;20033;-70
2022/10/06 10:40:46;;;;;;;5.88;1.35;;;18.90;99.90;;;;;;5035284;28;20025;-71
2022/10/06 10:43:38;;;;;;;10.80;1.75;;;19.00;99.90;;;;;;5036408;28;20061;-70
2022/10/06 10:46:31;;;;;;;8.50;1.83;;;19.30;99.90;;;;;;5035499;28;20021;-71
2022/10/06 10:49:00;;;;;;;6.50;1.85;;;19.40;99.90;;;;;;5034289;28;20045;-70
2022/10/06 10:51:44;;;;;;;6.22;1.95;;;19.40;99.90;;;;;;5036744;28;20026;-69
2022/10/06 10:54:17;;;;;;;5.60;1.55;;;19.30;99.90;;;;;;5036444;28;20071;-70
2022/10/06 10:56:47;;;;;;;9.85;2.85;;;19.20;99.90;;;;;;5035509;28;20482;-70
2022/10/06 10:59:52;;;;;;;9.73;2.72;;;19.10;99.90;;;;;;5035746;28;20029;-71
2022/10/06 11:02:20;;;;;;;7.80;1.70;;;19.00;99.90;;;;;;5036328;28;20351;-70
2022/10/06 11:04:49;;;;;;;7.57;1.63;;;19.10;99.90;;;;;;5037453;28;20028;-71
2022/10/06 11:07:35;;;;;;;10.32;1.45;;;19.10;99.90;;;;;;5038009;28;20032;-70
2022/10/06 11:10:24;;;;;;;3.25;1.00;;;19.10;99.90;;;;;;5037506;28;20013;-71
2022/10/06 11:13:13;;;;;;;7.43;2.40;;;19.50;99.90;;;;;;5036832;28;20156;-70
2022/10/06 11:15:57;;;;;;;11.10;2.58;;;19.70;99.90;;;;;;5037735;28;20014;-70
2022/10/06 11:18:31;;;;;;;11.38;3.60;;;20.00;99.90;;;;;;5035767;28;20030;-70
2022/10/06 11:21:04;;;;;;;7.78;2.05;;;20.40;99.90;;;;;;5035874;28;20068;-71
2022/10/06 11:24:13;;;;;;;6.50;1.67;;;20.50;99.90;;;;;;5036389;28;20034;-70
2022/10/06 11:26:50;;;;;;;8.65;2.05;;;20.50;99.90;;;;;;5037288;28;20056;-70
2022/10/06 11:29:34;;;;;;;8.90;3.50;;;20.60;99.90;;;;;;5036642;28;20026;-71
2022/10/06 11:32:02;;;;;;;6.38;1.42;;;20.70;99.90;;;;;;5036547;28;20028;-70
2022/10/06 11:34:28;;;;;;;6.13;1.95;;;20.50;99.90;;;;;;5038496;28;20017;-71
2022/10/06 11:37:01;;;;;;;6.97;1.35;;;20.50;99.90;;;;;;5037631;28;20359;-71
2022/10/06 11:39:48;;;;;;;10.07;2.63;;;20.40;99.90;;;;;;5036364;28;20101;-70
2022/10/06 11:42:40;;;;;;;7.18;1.75;;;20.10;99.90;;;;;;5035943;28;20026;-71
2022/10/06 11:45:15;;;;;;;8.15;1.33;;;19.90;99.90;;;;;;5037925;28;20061;-70
2022/10/06 11:48:17;;;;;;;4.82;1.35;;;19.90;99.90;;;;;;5035882;28;20160;-69
2022/10/06 11:50:45;;;;;;;4.85;1.30;;;20.00;99.90;;;;;;5036051;28;20048;-66
2022/10/06 11:53:36;;;;;;;8.30;1.60;;;20.20;99.90;;;;;;5036036;28;20022;-69
2022/10/06 11:56:16;;;;;;;9.25;2.25;;;20.20;99.90;;;;;;5036564;28;20032;-68
2022/10/06 11:58:54;;;;;;;8.23;2.17;;;20.30;99.90;;;;;;5036876;28;20037;-68
2022/10/06 12:01:42;;;;;;;6.20;1.45;;;20.30;99.90;;;;;;5036149;28;20030;-67
2022/10/06 12:04:08;;;;;;;4.53;1.50;;;20.50;99.90;;;;;;5035821;28;20022;-67
2022/10/06 12:09:38;;;;;;;8.48;1.50;;;20.40;99.90;;;;;;5035799;28;20637;-68
2022/10/06 12:12:18;;;;;;;5.38;1.15;;;20.20;99.90;;;;;;5036515;28;20021;-67
2022/10/06 12:15:12;;;;;;;6.43;1.50;;;20.00;99.90;;;;;;5035458;28;20030;-68
2022/10/06 12:18:01;;;;;;;6.35;1.55;;;20.00;99.90;;;;;;5034975;28;20025;-68
2022/10/06 12:20:46;;;;;;;6.35;1.30;;;20.00;99.90;;;;;;5035563;28;20112;-67
2022/10/06 12:23:35;;;;;;;9.52;1.08;;;20.10;99.90;;;;;;5033367;28;20482;-67
2022/10/06 12:26:41;;;;;;;7.40;1.73;;;20.00;99.90;;;;;;5035142;28;20029;-68
2022/10/06 12:29:44;;;;;;;9.02;1.60;;;20.00;99.90;;;;;;4977032;28;20040;-67
2022/10/06 12:32:34;;;;;;;5.63;1.48;;;19.80;99.90;;;;;;4993416;28;20483;-67
2022/10/06 12:34:59;;;;;;;7.30;1.95;;;19.80;99.90;;;;;;4993938;28;20041;-66
2022/10/06 12:37:28;;;;;;;8.85;1.27;;;19.60;99.90;;;;;;4993609;28;20109;-67
2022/10/06 12:40:30;;;;;;;6.70;1.42;;;19.50;99.90;;;;;;4993818;28;20027;-68
2022/10/06 12:43:19;;;;;;;5.25;1.25;;;19.60;99.90;;;;;;4993283;28;20072;-67
2022/10/06 12:46:11;;;;;;;8.60;1.70;;;19.70;99.90;;;;;;4993195;28;20041;-66
2022/10/06 12:49:03;;;;;;;3.95;1.45;;;19.80;99.90;;;;;;4993663;28;20495;-75
2022/10/06 12:51:31;;;;;;;7.22;1.70;;;20.10;99.90;;;;;;4977271;28;20084;-74
2022/10/06 12:54:10;;;;;;;4.43;1.35;;;20.30;99.90;;;;;;4976901;28;20027;-74
2022/10/06 12:56:39;;;;;;;6.22;1.63;;;20.30;99.90;;;;;;4993625;28;20031;-74
2022/10/06 12:59:34;;;;;;;5.65;1.25;;;20.20;99.90;;;;;;4977873;28;20033;-75
2022/10/06 13:02:16;;;;;;;8.18;1.23;;;20.20;99.90;;;;;;4977439;28;20045;-74
2022/10/06 13:04:52;;;;;;;8.90;1.40;;;20.00;99.90;;;;;;5013171;28;20112;-73
2022/10/06 13:07:39;;;;;;;5.22;1.33;;;20.00;99.90;;;;;;5013097;28;20028;-74
2022/10/06 13:10:14;;;;;;;6.25;1.20;;;20.10;99.90;;;;;;5007128;28;20494;-74
2022/10/06 13:12:45;;;;;;;8.07;1.60;;;20.10;99.90;;;;;;5014486;28;20030;-74
2022/10/06 13:15:29;;;;;;;6.25;1.55;;;20.20;99.90;;;;;;5013757;28;20121;-75
2022/10/06 13:18:13;;;;;;;8.85;1.48;;;20.10;99.90;;;;;;5014187;28;20025;-75
2022/10/06 13:20:44;;;;;;;6.03;1.52;;;20.20;99.90;;;;;;5014330;28;20026;-75
2022/10/06 13:23:27;;;;;;;5.10;1.45;;;20.30;99.90;;;;;;5014857;28;20046;-75
2022/10/06 13:25:58;;;;;;;6.53;1.48;;;20.30;99.90;;;;;;5029069;28;20025;-75